Time,TemperatureF,DewpointF,PressureIn,WindDirection,WindDirectionDegrees,WindSpeedMPH,WindSpeedGustMPH,Humidity,HourlyPrecipIn,Conditions,Clouds,dailyrainin,SoftwareType,DateUTC
2013-06-04 00:00:00,65.1,63.0,30.02,ESE,109,0.0,0.0,93,0.00,RA,,0.00,WeatherDisplay:10.37,2013-06-04 04:00:00,
2013-06-04 00:15:00,64.8,62.7,30.02,ESE,109,0.0,0.0,93,0.00,BKN,,0.00,WeatherDisplay:10.37,2013-06-04 04:15:00,
2013-06-04 00:30:00,64.4,62.3,30.02,ESE,109,0.0,0.0,93,0.00,CLR,,0.00,WeatherDisplay:10.37,2013-06-04 04:30:00,
2013-06-04 00:45:00,64.2,62.4,30.03,ESE,109,0.0,0.0,94,0.00,CLR,,0.00,WeatherDisplay:10.37,2013-06-04 04:45:00,
2013-06-04 01:00:00,64.2,62.4,30.03,ESE,109,0.0,1.0,94,0.00,CLR,,0.00,WeatherDisplay:10.37,2013-06-04 05:00:00,
2013-06-04 01:15:00,64.6,62.8,30.02,ESE,109,0.0,1.0,94,0.00,CLR,,0.00,WeatherDisplay:10.37,2013-06-04 05:15:00,
2013-06-04 01:30:00,64.6,62.8,30.03,ESE,109,0.0,1.0,94,0.00,FEW,,0.00,WeatherDisplay:10.37,2013-06-04 05:30:00,
2013-06-04 01:45:00,64.6,62.8,30.02,ESE,109,0.0,0.0,94,0.00,FEW,,0.00,WeatherDisplay:10.37,2013-06-04 05:45:00,
2013-06-04 02:00:00,64.5,62.7,30.02,ESE,109,0.0,0.0,94,0.00,FEW,,0.00,WeatherDisplay:10.37,2013-06-04 06:00:00,
2013-06-04 02:15:00,64.7,62.9,30.02,ESE,109,0.0,0.0,94,0.00,FEW,,0.00,WeatherDisplay:10.37,2013-06-04 06:15:00,
2013-06-04 02:30:00,64.8,63.0,30.02,ESE,109,0.0,0.0,94,0.00,FEW,,0.00,WeatherDisplay:10.37,2013-06-04 06:30:00,
2013-06-04 02:45:00,64.8,63.3,30.02,ESE,109,0.0,1.0,95,0.00,FEW,,0.00,WeatherDisplay:10.37,2013-06-04 06:45:00,
2013-06-04 03:00:00,65.1,63.6,30.02,NNW,327,0.0,4.0,95,0.00,FEW,,0.00,WeatherDisplay:10.37,2013-06-04 07:00:00,
2013-06-04 03:15:00,65.2,63.7,30.02,NNW,327,0.0,0.0,95,0.00,FEW,,0.00,WeatherDisplay:10.37,2013-06-04 07:15:00,
2013-06-04 03:30:00,65.1,63.6,30.01,NNW,327,0.0,0.0,95,0.00,OVC,,0.00,WeatherDisplay:10.37,2013-06-04 07:30:00,
2013-06-04 03:45:00,64.8,63.3,30.01,NNW,327,0.0,0.0,95,0.00,OVC,,0.00,WeatherDisplay:10.37,2013-06-04 07:45:00,
2013-06-04 04:00:00,64.4,62.9,30.01,NNW,327,0.0,0.0,95,0.00,OVC,,0.00,WeatherDisplay:10.37,2013-06-04 08:00:00,
2013-06-04 04:15:00,64.1,62.6,30.01,NNW,327,0.0,0.0,95,0.00,OVC,,0.00,WeatherDisplay:10.37,2013-06-04 08:15:00,
2013-06-04 04:30:00,63.9,62.4,30.01,NNW,327,0.0,1.0,95,0.00,BKN,,0.00,WeatherDisplay:10.37,2013-06-04 08:30:00,
2013-06-04 04:45:00,63.7,62.2,30.01,NNW,327,0.0,0.0,95,0.00,BKN,,0.00,WeatherDisplay:10.37,2013-06-04 08:45:00,
2013-06-04 05:00:00,63.9,62.4,30.01,NNW,327,0.0,0.0,95,0.00,BKN,,0.00,WeatherDisplay:10.37,2013-06-04 09:00:00,
2013-06-04 05:15:00,64.0,62.5,30.02,NNW,327,0.0,0.0,95,0.00,BKN,,0.00,WeatherDisplay:10.37,2013-06-04 09:15:00,
2013-06-04 05:30:00,64.0,62.6,30.02,NNW,327,0.0,0.0,95,0.00,FEW,,0.00,WeatherDisplay:10.37,2013-06-04 09:30:00,
2013-06-04 05:45:00,64.3,63.1,30.03,NNW,327,0.0,0.0,96,0.00,FEW,,0.00,WeatherDisplay:10.37,2013-06-04 09:45:00,
2013-06-04 06:00:00,64.3,62.8,30.03,NNW,327,0.0,0.0,95,0.00,FEW,,0.00,WeatherDisplay:10.37,2013-06-04 10:00:00,
2013-06-04 06:15:00,64.3,62.9,30.04,NNW,327,0.0,0.0,95,0.00,FEW,,0.00,WeatherDisplay:10.37,2013-06-04 10:15:00,
2013-06-04 06:30:00,64.4,63.2,30.06,NNW,327,0.0,0.0,96,0.00,OVC,,0.00,WeatherDisplay:10.37,2013-06-04 10:30:00,
2013-06-04 06:45:00,64.5,63.0,30.07,NW,315,1.0,5.0,95,0.00,OVC,,0.00,WeatherDisplay:10.37,2013-06-04 10:45:00,
2013-06-04 07:00:00,64.2,62.7,30.08,SW,220,0.0,6.0,95,0.00,OVC,,0.00,WeatherDisplay:10.37,2013-06-04 11:00:00,
2013-06-04 07:15:00,64.3,63.1,30.07,ENE,73,3.0,6.0,96,0.00,OVC,,0.00,WeatherDisplay:10.37,2013-06-04 11:15:00,
2013-06-04 07:30:00,63.6,62.1,30.07,NE,55,0.0,6.0,95,0.00,OVC,,0.00,WeatherDisplay:10.37,2013-06-04 11:30:00,
2013-06-04 07:45:00,63.4,61.7,30.08,NNE,30,2.0,5.0,94,0.00,OVC,,0.00,WeatherDisplay:10.37,2013-06-04 11:45:00,
2013-06-04 08:00:00,63.4,61.3,30.08,NNE,33,2.0,4.0,93,0.00,OVC,,0.00,WeatherDisplay:10.37,2013-06-04 12:00:00,
2013-06-04 08:15:00,63.7,61.1,30.08,North,8,2.0,4.0,91,0.00,OVC,,0.00,WeatherDisplay:10.37,2013-06-04 12:15:00,
2013-06-04 08:30:00,64.7,61.3,30.08,North,11,0.0,6.0,89,0.00,OVC,,0.00,WeatherDisplay:10.37,2013-06-04 12:30:00,
2013-06-04 08:45:00,66.0,62.0,30.08,NE,48,1.0,7.0,87,0.00,OVC,,0.00,WeatherDisplay:10.37,2013-06-04 12:45:00,
2013-06-04 09:00:00,66.7,61.4,30.09,ENE,60,3.0,9.0,83,0.00,OVC,,0.00,WeatherDisplay:10.37,2013-06-04 13:00:00,
2013-06-04 09:15:00,67.8,62.1,30.09,NE,55,2.0,9.0,82,0.00,OVC,,0.00,WeatherDisplay:10.37,2013-06-04 13:15:00,
2013-06-04 09:30:00,68.3,62.2,30.10,NE,41,3.0,7.0,81,0.00,OVC,,0.00,WeatherDisplay:10.37,2013-06-04 13:30:00,
2013-06-04 09:45:00,68.3,61.9,30.11,NE,50,3.0,8.0,80,0.00,OVC,,0.00,WeatherDisplay:10.37,2013-06-04 13:45:00,
2013-06-04 10:00:00,68.3,62.3,30.11,ENE,65,3.0,8.0,81,0.00,OVC,,0.00,WeatherDisplay:10.37,2013-06-04 14:00:00,
2013-06-04 10:15:00,68.2,61.1,30.11,NE,53,2.0,8.0,78,0.00,OVC,,0.00,WeatherDisplay:10.37,2013-06-04 14:15:00,
2013-06-04 10:30:00,68.2,60.3,30.11,ENE,61,2.0,7.0,76,0.00,OVC,,0.00,WeatherDisplay:10.37,2013-06-04 14:30:00,
2013-06-04 10:45:00,68.2,60.7,30.12,NE,41,1.0,5.0,77,0.00,OVC,,0.00,WeatherDisplay:10.37,2013-06-04 14:45:00,
2013-06-04 11:00:00,67.7,59.9,30.13,North,6,5.0,8.0,76,0.00,OVC,,0.00,WeatherDisplay:10.37,2013-06-04 15:00:00,
2013-06-04 11:15:00,67.6,60.9,30.13,NNE,31,2.0,5.0,79,0.00,OVC,,0.00,WeatherDisplay:10.37,2013-06-04 15:15:00,
2013-06-04 11:30:00,68.1,61.0,30.13,NE,45,1.0,6.0,78,0.00,OVC,,0.00,WeatherDisplay:10.37,2013-06-04 15:30:00,
2013-06-04 11:45:00,68.6,61.1,30.14,NE,47,3.0,8.0,77,0.00,OVC,,0.00,WeatherDisplay:10.37,2013-06-04 15:45:00,
2013-06-04 12:00:00,68.5,61.0,30.14,NE,49,3.0,7.0,77,0.00,OVC,,0.00,WeatherDisplay:10.37,2013-06-04 16:00:00,
2013-06-04 12:15:00,68.3,60.8,30.14,ENE,57,1.0,7.0,77,0.00,OVC,,0.00,WeatherDisplay:10.37,2013-06-04 16:15:00,
2013-06-04 12:30:00,68.1,60.6,30.14,NE,52,0.0,7.0,77,0.00,-RA,,0.00,WeatherDisplay:10.37,2013-06-04 16:30:00,
2013-06-04 12:45:00,68.7,61.6,30.13,ENE,62,1.0,5.0,78,0.00,-RA,,0.00,WeatherDisplay:10.37,2013-06-04 16:45:00,
2013-06-04 13:00:00,69.7,62.2,30.12,ENE,74,2.0,8.0,77,0.00,-RA,,0.00,WeatherDisplay:10.37,2013-06-04 17:00:00,
2013-06-04 13:15:00,70.8,60.9,30.12,ENE,64,5.0,9.0,71,0.00,-RA,,0.00,WeatherDisplay:10.37,2013-06-04 17:15:00,
2013-06-04 13:30:00,72.0,62.1,30.12,ENE,77,2.0,10.0,71,0.00,OVC,,0.00,WeatherDisplay:10.37,2013-06-04 17:30:00,
2013-06-04 13:45:00,72.2,60.2,30.12,NE,48,3.0,12.0,66,0.00,OVC,,0.00,WeatherDisplay:10.37,2013-06-04 17:45:00,
2013-06-04 14:00:00,71.4,60.3,30.13,ENE,67,5.0,10.0,68,0.00,OVC,,0.00,WeatherDisplay:10.37,2013-06-04 18:00:00,
2013-06-04 14:15:00,71.4,61.1,30.12,NE,54,1.0,7.0,70,0.00,OVC,,0.00,WeatherDisplay:10.37,2013-06-04 18:15:00,
2013-06-04 14:30:00,71.5,61.2,30.12,NE,48,3.0,5.0,70,0.00,OVC,,0.00,WeatherDisplay:10.37,2013-06-04 18:30:00,
2013-06-04 14:45:00,71.6,61.7,30.12,NE,52,1.0,7.0,71,0.00,OVC,,0.00,WeatherDisplay:10.37,2013-06-04 18:45:00,
2013-06-04 15:00:00,71.9,61.6,30.11,NE,41,2.0,7.0,70,0.00,OVC,,0.00,WeatherDisplay:10.37,2013-06-04 19:00:00,
2013-06-04 15:15:00,72.6,62.3,30.11,NE,51,2.0,9.0,70,0.00,OVC,,0.00,WeatherDisplay:10.37,2013-06-04 19:15:00,
2013-06-04 15:30:00,72.3,62.0,30.11,ENE,57,2.0,8.0,70,0.00,OVC,,0.00,WeatherDisplay:10.37,2013-06-04 19:30:00,
2013-06-04 15:45:00,72.5,62.6,30.10,NE,52,0.0,7.0,71,0.00,OVC,,0.00,WeatherDisplay:10.37,2013-06-04 19:45:00,
2013-06-04 16:00:00,73.2,62.8,30.11,NE,38,1.0,6.0,70,0.00,OVC,,0.00,WeatherDisplay:10.37,2013-06-04 20:00:00,
2013-06-04 16:15:00,73.4,63.0,30.11,ENE,70,1.0,6.0,70,0.00,OVC,,0.00,WeatherDisplay:10.37,2013-06-04 20:15:00,
2013-06-04 16:30:00,73.2,62.8,30.11,NE,46,3.0,6.0,70,0.00,OVC,,0.00,WeatherDisplay:10.37,2013-06-04 20:30:00,
2013-06-04 16:45:00,72.8,62.9,30.10,NNE,12,3.0,7.0,71,0.00,OVC,,0.00,WeatherDisplay:10.37,2013-06-04 20:45:00,
2013-06-04 17:00:00,73.3,63.3,30.10,NE,56,2.0,7.0,71,0.00,OVC,,0.00,WeatherDisplay:10.37,2013-06-04 21:00:00,
2013-06-04 17:15:00,73.5,63.5,30.10,ENE,63,2.0,6.0,71,0.00,OVC,,0.00,WeatherDisplay:10.37,2013-06-04 21:15:00,
2013-06-04 17:30:00,74.1,63.7,30.10,ENE,69,3.0,6.0,70,0.00,OVC,,0.00,WeatherDisplay:10.37,2013-06-04 21:30:00,
2013-06-04 17:45:00,73.7,63.7,30.10,NE,43,2.0,6.0,71,0.00,OVC,,0.00,WeatherDisplay:10.37,2013-06-04 21:45:00,
2013-06-04 18:00:00,73.6,63.6,30.09,NE,54,1.0,5.0,71,0.00,OVC,,0.00,WeatherDisplay:10.37,2013-06-04 22:00:00,
2013-06-04 18:15:00,73.7,63.7,30.08,NE,36,2.0,5.0,71,0.00,OVC,,0.00,WeatherDisplay:10.37,2013-06-04 22:15:00,
2013-06-04 18:30:00,73.5,63.5,30.08,NE,45,3.0,8.0,71,0.00,BKN,,0.00,WeatherDisplay:10.37,2013-06-04 22:30:00,
2013-06-04 18:45:00,73.6,63.6,30.08,NE,51,1.0,6.0,71,0.00,BKN,,0.00,WeatherDisplay:10.37,2013-06-04 22:45:00,
2013-06-04 19:00:00,73.2,63.2,30.08,NNE,18,2.0,7.0,71,0.00,BKN,,0.00,WeatherDisplay:10.37,2013-06-04 23:00:00,
2013-06-04 19:15:00,72.8,62.8,30.09,NE,50,2.0,5.0,71,0.00,BKN,,0.00,WeatherDisplay:10.37,2013-06-04 23:15:00,
2013-06-04 19:30:00,72.3,62.8,30.09,NE,47,1.0,6.0,72,0.00,CLR,,0.00,WeatherDisplay:10.37,2013-06-04 23:30:00,
2013-06-04 19:45:00,71.8,62.7,30.10,NE,46,1.0,4.0,73,0.00,CLR,,0.00,WeatherDisplay:10.37,2013-06-04 23:45:00,
2013-06-04 20:00:00,71.4,63.1,30.10,NE,47,0.0,2.0,75,0.00,CLR,,0.00,WeatherDisplay:10.37,2013-06-05 00:00:00,
2013-06-04 20:15:00,70.7,62.8,30.11,NE,47,0.0,1.0,76,0.00,CLR,,0.00,WeatherDisplay:10.37,2013-06-05 00:15:00,
2013-06-04 20:30:00,69.6,62.5,30.11,NE,47,0.0,0.0,78,0.00,CLR,,0.00,WeatherDisplay:10.37,2013-06-05 00:30:00,
2013-06-04 20:45:00,68.5,62.5,30.11,NE,47,0.0,0.0,81,0.00,CLR,,0.00,WeatherDisplay:10.37,2013-06-05 00:45:00,
2013-06-04 21:00:00,67.3,61.6,30.12,NE,47,0.0,1.0,82,0.00,CLR,,0.00,WeatherDisplay:10.37,2013-06-05 01:00:00,
2013-06-04 21:15:00,66.2,60.9,30.12,NE,47,0.0,0.0,83,0.00,CLR,,0.00,WeatherDisplay:10.37,2013-06-05 01:15:00,
2013-06-04 21:30:00,65.4,61.1,30.13,NE,47,0.0,0.0,86,0.00,CLR,,0.00,WeatherDisplay:10.37,2013-06-05 01:30:00,
2013-06-04 21:45:00,64.5,60.9,30.13,NE,47,0.0,0.0,88,0.00,CLR,,0.00,WeatherDisplay:10.37,2013-06-05 01:45:00,
2013-06-04 22:00:00,63.8,60.2,30.14,NE,47,0.0,0.0,88,0.00,CLR,,0.00,WeatherDisplay:10.37,2013-06-05 02:00:00,
2013-06-04 22:15:00,63.3,60.0,30.14,NE,47,0.0,0.0,89,0.00,CLR,,0.00,WeatherDisplay:10.37,2013-06-05 02:15:00,
2013-06-04 22:30:00,62.9,59.9,30.14,NE,47,0.0,0.0,90,0.00,CLR,,0.00,WeatherDisplay:10.37,2013-06-05 02:30:00,
2013-06-04 22:45:00,62.5,59.5,30.14,NE,47,0.0,0.0,90,0.00,CLR,,0.00,WeatherDisplay:10.37,2013-06-05 02:45:00,
2013-06-04 23:00:00,62.3,59.6,30.14,NE,47,0.0,0.0,91,0.00,CLR,,0.00,WeatherDisplay:10.37,2013-06-05 03:00:00,
2013-06-04 23:15:00,62.0,59.3,30.14,NE,47,0.0,0.0,91,0.00,CLR,,0.00,WeatherDisplay:10.37,2013-06-05 03:15:00,
2013-06-04 23:30:00,61.7,59.3,30.14,NE,47,0.0,0.0,92,0.00,CLR,,0.00,WeatherDisplay:10.37,2013-06-05 03:30:00,
2013-06-04 23:45:00,61.4,59.1,30.14,NE,47,0.0,1.0,92,0.00,CLR,,0.00,WeatherDisplay:10.37,2013-06-05 03:45:00,